Time;durP1;ratioP1;P1;durP2;ratioP2;P2;SDS_P1;SDS_P2;PMS_P1;PMS_P2;Temp;Humidity;BMP_temperature;BMP_pressure;BME280_temperature;BME280_humidity;BME280_pressure;Samples;Min_cycle;Max_cycle;Signal;HPM_P1;HPM_P2
2023/03/29 00:00:58;;;;;;;5.30;2.50;;;;;;;6.16;49.29;100081.25;108255;1286;21981;-63
2023/03/29 00:03:25;;;;;;;5.90;2.70;;;;;;;6.23;49.09;100080.21;108121;1286;21985;-69
2023/03/29 00:05:56;;;;;;;6.30;2.80;;;;;;;6.23;49.24;100079.70;108108;1286;23156;-68
2023/03/29 00:08:26;;;;;;;4.80;2.50;;;;;;;6.11;49.79;100083.88;108071;1285;22450;-63
2023/03/29 00:10:55;;;;;;;5.30;2.90;;;;;;;6.08;50.14;100079.69;108080;1286;21986;-63
2023/03/29 00:13:21;;;;;;;6.90;3.10;;;;;;;5.93;50.90;100082.26;107507;1286;1002310;-63
2023/03/29 00:15:47;;;;;;;5.10;3.10;;;;;;;5.89;51.24;100087.97;108112;1286;21984;-63
2023/03/29 00:18:13;;;;;;;5.20;3.10;;;;;;;5.97;51.12;100085.40;108222;1286;21986;-63
2023/03/29 00:20:39;;;;;;;8.30;3.90;;;;;;;6.09;50.90;100089.27;108099;1273;21992;-63
2023/03/29 00:23:14;;;;;;;5.30;3.00;;;;;;;6.01;51.30;100088.89;107357;1286;1002574;-68
2023/03/29 00:25:43;;;;;;;4.70;2.80;;;;;;;6.16;50.85;100087.72;107393;1286;1002422;-65
2023/03/29 00:28:09;;;;;;;5.80;3.40;;;;;;;6.02;51.67;100097.27;107390;1286;1002290;-68
2023/03/29 00:30:35;;;;;;;5.30;3.10;;;;;;;6.01;51.82;100109.63;108122;1286;22449;-68
2023/03/29 00:33:03;;;;;;;5.60;3.40;;;;;;;6.11;51.66;100108.43;108233;1286;21991;-68
2023/03/29 00:35:30;;;;;;;6.40;3.60;;;;;;;6.03;52.32;100114.85;108218;1286;21989;-63
2023/03/29 00:37:56;;;;;;;5.70;3.30;;;;;;;6.10;51.87;100118.71;107421;1286;1002751;-67
2023/03/29 00:40:22;;;;;;;7.50;3.60;;;;;;;6.06;52.28;100123.75;107355;1286;1002229;-68
2023/03/29 00:42:50;;;;;;;6.30;3.70;;;;;;;6.11;52.05;100132.66;108071;1285;22020;-63
2023/03/29 00:45:22;;;;;;;7.10;3.60;;;;;;;6.01;52.89;100133.83;107330;1286;1002454;-68
2023/03/29 00:48:01;;;;;;;5.90;3.60;;;;;;;5.75;54.49;100137.91;108198;1286;22018;-68
2023/03/29 00:50:42;;;;;;;7.40;3.90;;;;;;;5.89;54.20;100134.66;108166;1286;24322;-64
2023/03/29 00:53:13;;;;;;;6.10;3.80;;;;;;;5.96;54.16;100140.08;108114;1286;21986;-63
2023/03/29 00:55:47;;;;;;;7.10;4.20;;;;;;;5.96;54.18;100143.39;108104;1286;22099;-63
2023/03/29 00:58:15;;;;;;;7.70;4.30;;;;;;;6.03;53.93;100151.62;108231;1286;21996;-67
2023/03/29 01:00:46;;;;;;;6.80;4.10;;;;;;;5.91;54.89;100151.73;108149;1286;21989;-63
2023/03/29 01:03:12;;;;;;;5.50;3.90;;;;;;;6.01;54.18;100156.32;108147;1286;22450;-63
2023/03/29 01:05:44;;;;;;;7.00;4.40;;;;;;;5.85;55.18;100159.38;108234;1286;21989;-63
2023/03/29 01:08:17;;;;;;;6.70;4.40;;;;;;;5.91;55.18;100166.55;108069;1284;21987;-68
2023/03/29 01:10:47;;;;;;;8.60;5.40;;;;;;;6.01;54.70;100172.33;108129;1285;23715;-63
2023/03/29 01:13:17;;;;;;;6.90;4.40;;;;;;;5.95;54.74;100175.27;108047;1283;23609;-68
2023/03/29 01:15:44;;;;;;;8.30;5.00;;;;;;;5.74;56.12;100176.05;108159;1284;21983;-63
2023/03/29 01:18:10;;;;;;;7.10;4.60;;;;;;;5.89;55.68;100180.98;108116;1283;22000;-63
2023/03/29 01:20:49;;;;;;;8.90;4.90;;;;;;;6.09;54.44;100185.08;108188;1285;21987;-68
2023/03/29 01:23:26;;;;;;;9.90;5.30;;;;;;;6.12;54.33;100188.59;108136;1286;21994;-63
2023/03/29 01:26:18;;;;;;;7.80;5.20;;;;;;;6.00;54.81;100185.05;107393;1286;1002861;-68
2023/03/29 01:28:48;;;;;;;8.30;4.90;;;;;;;5.98;55.11;100188.34;108111;1286;23462;-68
2023/03/29 01:31:17;;;;;;;8.80;5.20;;;;;;;5.92;55.54;100195.63;108157;1286;21986;-62
2023/03/29 01:33:48;;;;;;;9.60;5.70;;;;;;;5.96;54.92;100195.64;107977;1286;21989;-63
2023/03/29 01:36:17;;;;;;;8.40;5.50;;;;;;;5.88;55.89;100198.73;108217;1286;21990;-65
2023/03/29 01:38:56;;;;;;;7.60;5.40;;;;;;;5.85;55.98;100200.48;108038;1286;22024;-66
2023/03/29 01:41:25;;;;;;;9.60;5.70;;;;;;;5.93;55.55;100202.25;108239;1286;21986;-66
2023/03/29 01:44:11;;;;;;;13.90;5.00;;;;;;;5.87;55.70;100200.65;108135;1286;23463;-64
2023/03/29 01:46:43;;;;;;;9.50;5.20;;;;;;;5.80;56.06;100199.58;107292;1286;1003184;-65
2023/03/29 01:49:41;;;;;;;7.90;5.30;;;;;;;5.75;56.23;100200.77;107374;1286;1002446;-65
2023/03/29 01:52:21;;;;;;;8.30;5.20;;;;;;;5.77;56.38;100205.30;108114;1284;21986;-61
2023/03/29 01:54:57;;;;;;;7.70;4.50;;;;;;;5.74;56.41;100199.38;108069;1286;21982;-61
2023/03/29 01:57:23;;;;;;;11.00;5.00;;;;;;;5.71;56.70;100205.10;107337;1286;1002538;-61
2023/03/29 01:59:49;;;;;;;8.60;5.40;;;;;;;5.68;56.83;100204.39;107951;1281;22017;-61
2023/03/29 02:02:15;;;;;;;10.40;6.00;;;;;;;5.69;56.79;100208.23;108227;1286;22097;-61
2023/03/29 02:04:46;;;;;;;8.10;5.40;;;;;;;5.75;56.25;100208.77;108094;1285;22942;-67
2023/03/29 02:07:12;;;;;;;8.50;5.30;;;;;;;5.83;55.87;100207.77;108108;1285;22492;-66
2023/03/29 02:09:39;;;;;;;8.30;5.40;;;;;;;5.70;56.44;100209.98;108148;1286;21990;-61
2023/03/29 02:12:05;;;;;;;10.30;5.50;;;;;;;5.44;57.99;100212.09;107969;1284;21991;-67
2023/03/29 02:14:33;;;;;;;7.60;5.20;;;;;;;5.45;57.94;100212.27;108106;1284;22033;-62
2023/03/29 02:17:17;;;;;;;18.70;5.70;;;;;;;5.60;57.11;100210.09;108072;1286;21986;-62
2023/03/29 02:19:45;;;;;;;10.90;5.20;;;;;;;5.75;56.64;100208.61;107526;1285;1002676;-65
2023/03/29 02:22:10;;;;;;;9.60;5.30;;;;;;;5.73;56.49;100201.98;108163;1286;21999;-67
2023/03/29 02:24:36;;;;;;;7.40;5.40;;;;;;;5.59;56.97;100205.56;107341;1286;1002595;-62
2023/03/29 02:27:07;;;;;;;8.20;5.20;;;;;;;5.60;56.99;100211.31;108235;1286;23738;-66
2023/03/29 02:29:34;;;;;;;7.60;5.60;;;;;;;5.67;56.58;100214.67;108076;1286;21998;-67
2023/03/29 02:32:11;;;;;;;10.20;5.30;;;;;;;5.63;56.82;100221.60;108171;1286;21994;-63
2023/03/29 02:34:42;;;;;;;8.90;5.60;;;;;;;5.64;56.33;100232.40;108136;1285;23770;-66
2023/03/29 02:37:10;;;;;;;7.90;5.30;;;;;;;5.57;56.75;100234.10;108101;1285;21993;-67
2023/03/29 02:39:37;;;;;;;6.70;4.30;;;;;;;5.62;56.22;100235.69;108189;1286;22031;-66
2023/03/29 02:42:03;;;;;;;7.10;5.20;;;;;;;5.60;55.79;100235.86;108099;1285;22031;-62
2023/03/29 02:44:30;;;;;;;6.90;4.60;;;;;;;5.43;56.90;100236.45;107297;1286;1003187;-66
2023/03/29 02:47:00;;;;;;;8.30;4.90;;;;;;;5.31;58.04;100234.98;108100;1280;22020;-62
2023/03/29 02:49:25;;;;;;;7.90;5.10;;;;;;;5.34;57.95;100235.52;108115;1286;21997;-67
2023/03/29 02:51:54;;;;;;;8.60;5.70;;;;;;;5.29;58.08;100237.93;108175;1286;21984;-66
2023/03/29 02:54:24;;;;;;;9.20;5.70;;;;;;;5.23;58.13;100243.11;108172;1285;21991;-66
2023/03/29 02:57:02;;;;;;;7.80;5.00;;;;;;;5.27;58.09;100247.66;108214;1285;21981;-63
2023/03/29 02:59:28;;;;;;;7.40;5.10;;;;;;;5.27;57.85;100247.31;108081;1286;22029;-67
2023/03/29 03:01:54;;;;;;;8.10;5.30;;;;;;;5.28;57.88;100258.63;108096;1286;22121;-66
2023/03/29 03:04:20;;;;;;;7.90;5.70;;;;;;;5.28;57.93;100257.41;108091;1286;21984;-63
2023/03/29 03:06:48;;;;;;;6.50;5.10;;;;;;;5.27;58.01;100258.80;107438;1285;1002259;-65
2023/03/29 03:09:14;;;;;;;8.80;6.10;;;;;;;5.17;58.44;100262.37;108172;1286;21989;-65
2023/03/29 03:11:42;;;;;;;8.30;5.60;;;;;;;5.18;58.53;100266.02;108220;1286;22761;-62
2023/03/29 03:14:09;;;;;;;7.90;5.50;;;;;;;5.21;58.02;100269.02;108282;1286;22002;-63
2023/03/29 03:16:35;;;;;;;9.90;5.60;;;;;;;5.19;57.96;100275.09;108261;1286;23695;-67
2023/03/29 03:19:03;;;;;;;7.70;4.50;;;;;;;5.13;58.40;100275.39;108118;1286;22060;-61
2023/03/29 03:21:30;;;;;;;8.80;5.60;;;;;;;5.19;57.97;100281.00;108144;1286;23322;-67
2023/03/29 03:23:55;;;;;;;10.80;5.80;;;;;;;5.12;58.22;100285.81;108059;1286;21987;-62
2023/03/29 03:26:23;;;;;;;7.70;5.20;;;;;;;5.13;58.32;100285.48;107842;1286;22160;-63
2023/03/29 03:28:50;;;;;;;6.70;5.10;;;;;;;5.11;58.15;100292.58;108081;1286;24364;-67
2023/03/29 03:31:18;;;;;;;7.50;5.20;;;;;;;5.18;57.86;100300.13;108195;1285;21985;-67
2023/03/29 03:33:44;;;;;;;7.80;5.00;;;;;;;5.15;57.70;100301.31;108291;1286;22098;-67
2023/03/29 03:36:10;;;;;;;7.90;5.90;;;;;;;5.17;57.47;100304.48;108092;1280;22019;-67
2023/03/29 03:38:45;;;;;;;7.80;5.70;;;;;;;5.10;57.68;100303.35;108112;1285;22049;-67
2023/03/29 03:41:10;;;;;;;8.90;5.70;;;;;;;5.11;57.71;100296.59;108204;1286;21984;-66
2023/03/29 03:43:36;;;;;;;8.90;5.80;;;;;;;5.13;57.03;100296.78;108077;1286;21981;-68
2023/03/29 03:46:02;;;;;;;10.00;6.10;;;;;;;5.05;57.49;100295.49;108186;1286;21978;-66
2023/03/29 03:48:28;;;;;;;7.40;5.30;;;;;;;4.97;58.16;100294.90;108104;1286;22161;-62
2023/03/29 03:50:55;;;;;;;8.70;6.00;;;;;;;4.96;58.15;100300.09;108084;1286;23713;-62
2023/03/29 03:53:22;;;;;;;9.10;6.30;;;;;;;5.01;57.83;100295.80;108134;1286;22011;-67
2023/03/29 03:55:54;;;;;;;8.80;6.30;;;;;;;5.06;57.46;100297.77;108189;1286;22854;-66
2023/03/29 03:58:21;;;;;;;9.10;5.70;;;;;;;5.09;57.54;100298.48;108163;1286;23838;-67
2023/03/29 04:00:47;;;;;;;10.20;6.40;;;;;;;5.01;57.99;100300.31;107367;1286;1002201;-63
2023/03/29 04:03:15;;;;;;;9.50;6.30;;;;;;;4.91;58.58;100305.09;108186;1286;21986;-67
2023/03/29 04:05:43;;;;;;;10.90;6.00;;;;;;;4.99;58.16;100303.95;107415;1286;1002460;-63
2023/03/29 04:08:09;;;;;;;9.20;6.60;;;;;;;5.11;57.58;100303.01;108091;1286;22799;-67
2023/03/29 04:10:35;;;;;;;10.10;6.30;;;;;;;5.13;57.77;100306.34;108207;1286;21988;-63
2023/03/29 04:13:03;;;;;;;10.20;6.40;;;;;;;5.09;57.74;100313.45;108075;1286;21990;-67
2023/03/29 04:15:30;;;;;;;9.80;6.50;;;;;;;5.15;57.45;100322.89;108161;1286;22009;-65
2023/03/29 04:17:59;;;;;;;8.80;6.40;;;;;;;4.98;58.42;100326.55;108171;1286;21987;-63
2023/03/29 04:20:25;;;;;;;8.60;6.40;;;;;;;5.00;59.06;100331.98;108157;1286;22042;-63
2023/03/29 04:22:54;;;;;;;10.40;7.50;;;;;;;5.14;58.49;100334.53;108154;1286;22038;-66
2023/03/29 04:25:21;;;;;;;10.40;6.50;;;;;;;5.24;57.88;100337.05;108211;1286;22154;-67
2023/03/29 04:27:48;;;;;;;9.50;7.30;;;;;;;5.22;58.30;100339.47;108154;1286;21984;-67
2023/03/29 04:30:14;;;;;;;10.20;7.10;;;;;;;5.26;57.91;100336.37;108070;1285;21989;-63
2023/03/29 04:32:40;;;;;;;10.60;7.30;;;;;;;5.29;57.99;100338.48;108086;1286;22022;-62
2023/03/29 04:35:06;;;;;;;11.50;7.30;;;;;;;5.27;57.96;100343.15;108218;1286;22024;-63
2023/03/29 04:37:39;;;;;;;10.50;6.80;;;;;;;5.32;58.10;100347.73;108110;1286;21987;-63
2023/03/29 04:40:08;;;;;;;9.90;6.50;;;;;;;5.41;57.96;100352.34;108096;1286;23640;-63
2023/03/29 04:42:44;;;;;;;10.50;7.40;;;;;;;5.51;57.47;100353.48;108240;1286;22008;-63
2023/03/29 04:45:12;;;;;;;9.20;7.00;;;;;;;5.55;57.36;100359.59;108091;1286;21990;-67
2023/03/29 04:47:39;;;;;;;9.50;7.10;;;;;;;5.65;57.11;100360.89;107417;1286;1003135;-63
2023/03/29 04:50:07;;;;;;;10.80;7.30;;;;;;;5.47;57.71;100365.45;108271;1281;21991;-64
2023/03/29 04:52:33;;;;;;;10.90;7.60;;;;;;;5.57;57.65;100366.91;108303;1286;22031;-68
2023/03/29 04:55:04;;;;;;;9.80;7.10;;;;;;;5.47;58.02;100369.45;107883;1286;252990;-64
2023/03/29 04:57:30;;;;;;;10.00;7.10;;;;;;;5.69;57.64;100371.53;108150;1286;22454;-63
2023/03/29 04:59:56;;;;;;;10.40;7.70;;;;;;;5.61;57.93;100371.29;108089;1286;22036;-64
2023/03/29 05:02:23;;;;;;;10.30;7.10;;;;;;;5.82;57.15;100370.41;108081;1286;23729;-66
2023/03/29 05:04:49;;;;;;;9.50;7.20;;;;;;;5.82;57.07;100373.89;107346;1286;1002513;-67
2023/03/29 05:07:17;;;;;;;9.10;6.80;;;;;;;5.88;57.19;100370.46;108172;1286;21997;-64
2023/03/29 05:09:45;;;;;;;9.90;6.70;;;;;;;5.92;56.65;100372.57;108094;1286;21981;-67
2023/03/29 05:12:11;;;;;;;8.90;6.40;;;;;;;5.95;56.94;100372.59;108169;1286;22033;-68
2023/03/29 05:14:41;;;;;;;10.70;7.30;;;;;;;5.83;56.89;100381.20;108268;1283;22047;-68
2023/03/29 05:17:07;;;;;;;9.00;7.00;;;;;;;5.98;56.44;100377.32;107412;1285;1003146;-67
2023/03/29 05:19:35;;;;;;;11.00;7.60;;;;;;;6.06;56.34;100381.21;108111;1286;21988;-66
2023/03/29 05:22:08;;;;;;;9.30;6.90;;;;;;;6.13;56.04;100381.96;108255;1283;22026;-62
2023/03/29 05:24:36;;;;;;;12.50;7.50;;;;;;;6.31;55.64;100386.42;108088;1286;22009;-66
2023/03/29 05:27:02;;;;;;;9.10;6.90;;;;;;;6.36;55.42;100388.88;107559;1286;1002399;-63
2023/03/29 05:29:34;;;;;;;9.00;6.60;;;;;;;6.49;55.36;100395.92;108157;1286;22007;-65
2023/03/29 05:32:00;;;;;;;9.40;6.90;;;;;;;6.54;55.24;100395.93;108099;1286;23062;-64
2023/03/29 05:34:26;;;;;;;9.50;6.60;;;;;;;6.59;54.86;100399.63;107411;1286;1002303;-69
2023/03/29 05:36:52;;;;;;;8.90;6.50;;;;;;;6.81;54.18;100392.21;108131;1281;21994;-68
2023/03/29 05:39:17;;;;;;;8.90;5.60;;;;;;;6.86;53.78;100393.63;108169;1286;21980;-68
2023/03/29 05:41:46;;;;;;;11.90;7.00;;;;;;;7.05;53.07;100393.49;107417;1286;1003084;-64
2023/03/29 05:44:12;;;;;;;12.60;8.10;;;;;;;7.09;53.09;100398.56;108097;1286;22046;-67
2023/03/29 05:46:39;;;;;;;10.40;6.80;;;;;;;7.16;53.10;100399.45;108127;1286;21988;-68
2023/03/29 05:49:06;;;;;;;9.70;6.50;;;;;;;7.26;52.77;100396.69;108189;1286;21975;-63
2023/03/29 05:51:32;;;;;;;11.20;7.10;;;;;;;7.39;51.78;100402.29;108096;1286;22261;-64
2023/03/29 05:53:58;;;;;;;7.10;5.60;;;;;;;7.53;51.08;100402.14;108179;1286;23646;-68
2023/03/29 05:56:25;;;;;;;9.60;6.20;;;;;;;7.62;50.68;100409.29;108085;1286;23643;-64
2023/03/29 05:58:54;;;;;;;9.30;6.80;;;;;;;7.64;50.67;100404.05;108105;1286;23694;-64
2023/03/29 06:01:21;;;;;;;8.70;6.10;;;;;;;7.50;50.79;100412.95;108171;1286;22269;-68
2023/03/29 06:03:48;;;;;;;8.70;6.10;;;;;;;7.64;50.47;100410.69;108138;1286;21988;-64
2023/03/29 06:06:15;;;;;;;7.50;5.30;;;;;;;7.63;50.14;100409.46;108102;1285;21980;-65
2023/03/29 06:08:42;;;;;;;9.30;5.00;;;;;;;7.71;49.72;100410.70;108184;1286;21985;-66
2023/03/29 06:11:09;;;;;;;8.60;5.70;;;;;;;7.63;49.51;100416.09;108170;1286;21985;-67
2023/03/29 06:13:37;;;;;;;9.00;6.10;;;;;;;7.62;49.03;100418.71;108386;1286;22454;-64
2023/03/29 06:16:05;;;;;;;6.90;4.80;;;;;;;7.76;49.12;100419.23;108261;1285;21985;-63
2023/03/29 06:18:32;;;;;;;6.70;4.80;;;;;;;7.66;49.07;100422.73;108180;1286;21992;-67
2023/03/29 06:20:58;;;;;;;8.70;4.70;;;;;;;7.60;48.69;100427.63;108138;1286;21987;-63
2023/03/29 06:23:23;;;;;;;6.60;4.30;;;;;;;7.81;48.25;100432.86;108123;1286;21988;-68
2023/03/29 06:25:51;;;;;;;7.90;5.30;;;;;;;8.01;47.67;100437.23;108151;1286;21994;-67
2023/03/29 06:28:18;;;;;;;7.50;4.70;;;;;;;8.05;47.08;100431.29;108116;1286;21989;-67
2023/03/29 06:30:44;;;;;;;7.80;4.90;;;;;;;8.19;47.40;100433.89;108113;1286;22001;-64
2023/03/29 06:33:11;;;;;;;8.30;5.00;;;;;;;8.35;47.51;100435.43;108217;1286;21987;-68
2023/03/29 06:35:42;;;;;;;9.80;3.60;;;;;;;8.46;46.25;100442.05;108183;1286;21991;-63
2023/03/29 06:38:10;;;;;;;5.20;3.20;;;;;;;8.50;45.43;100450.29;108194;1286;22024;-63
2023/03/29 06:40:39;;;;;;;6.40;3.40;;;;;;;8.65;44.96;100453.92;108130;1286;22982;-68
2023/03/29 06:43:05;;;;;;;5.30;3.50;;;;;;;8.73;44.76;100456.70;108117;1286;21986;-63
2023/03/29 06:45:35;;;;;;;6.90;3.30;;;;;;;8.69;43.95;100453.39;108139;1286;23609;-68
2023/03/29 06:48:02;;;;;;;7.10;3.30;;;;;;;8.65;43.29;100449.02;108169;1286;21985;-62
2023/03/29 06:50:31;;;;;;;5.80;3.50;;;;;;;8.71;42.94;100448.66;108232;1286;21981;-64
2023/03/29 06:52:57;;;;;;;5.40;3.10;;;;;;;8.81;43.09;100448.61;108276;1286;21982;-62
2023/03/29 06:55:23;;;;;;;4.40;2.60;;;;;;;8.84;42.82;100450.71;107391;1286;1002961;-62
2023/03/29 06:57:53;;;;;;;5.00;3.20;;;;;;;9.10;42.94;100450.23;108121;1286;23051;-63
2023/03/29 07:00:26;;;;;;;5.40;3.00;;;;;;;9.40;42.82;100448.50;108057;1286;21989;-63
2023/03/29 07:02:57;;;;;;;7.00;3.50;;;;;;;9.51;42.67;100440.54;108105;1286;22001;-68
2023/03/29 07:05:25;;;;;;;;;;;;;;;9.80;43.22;100446.29;108220;1286;21973;-63
2023/03/29 07:10:48;;;;;;;4.20;2.60;;;;;;;10.02;41.48;100452.58;108150;1286;22080;-67
2023/03/29 07:13:14;;;;;;;5.60;2.80;;;;;;;9.91;40.07;100463.19;107182;1286;1002207;-61
2023/03/29 07:15:40;;;;;;;4.50;2.50;;;;;;;9.70;39.67;100458.27;108143;1286;21989;-66
2023/03/29 07:18:11;;;;;;;4.00;2.40;;;;;;;9.72;40.56;100460.53;108221;1280;21991;-70
2023/03/29 07:20:38;;;;;;;4.00;2.90;;;;;;;9.82;40.26;100455.73;108202;1286;21990;-68
2023/03/29 07:23:04;;;;;;;4.50;2.80;;;;;;;9.74;39.11;100460.17;107326;1286;1002612;-69
2023/03/29 07:25:31;;;;;;;5.50;2.90;;;;;;;9.75;39.01;100464.73;108108;1286;21996;-70
2023/03/29 07:27:57;;;;;;;3.90;2.60;;;;;;;9.90;39.27;100466.19;108133;1286;21992;-62
2023/03/29 07:30:27;;;;;;;5.00;2.30;;;;;;;10.03;38.95;100467.12;108199;1286;21991;-61
2023/03/29 07:32:54;;;;;;;4.80;3.10;;;;;;;10.28;38.75;100464.98;108242;1286;23049;-68
2023/03/29 07:35:20;;;;;;;3.80;2.50;;;;;;;10.34;38.38;100464.40;107378;1281;1003269;-62
2023/03/29 07:38:07;;;;;;;3.30;2.10;;;;;;;10.64;38.42;100457.26;108162;1286;21986;-67
2023/03/29 07:40:38;;;;;;;4.60;2.80;;;;;;;10.81;37.58;100453.02;108139;1286;24080;-62
2023/03/29 07:43:07;;;;;;;4.30;2.70;;;;;;;10.81;36.79;100457.41;108136;1286;23130;-64
2023/03/29 07:45:36;;;;;;;3.30;2.30;;;;;;;10.57;36.26;100461.20;108246;1286;21986;-63
2023/03/29 07:48:01;;;;;;;4.30;2.40;;;;;;;10.52;36.70;100462.65;108124;1286;21989;-63
2023/03/29 07:50:27;;;;;;;3.70;2.20;;;;;;;10.53;37.13;100461.42;108097;1286;21987;-68
2023/03/29 07:52:56;;;;;;;4.20;2.50;;;;;;;10.60;37.84;100463.63;108159;1286;22448;-69
2023/03/29 07:55:22;;;;;;;3.80;2.30;;;;;;;10.72;37.98;100463.84;108081;1286;23647;-63
2023/03/29 07:57:48;;;;;;;4.80;2.60;;;;;;;10.77;37.08;100465.00;108135;1286;21993;-68
2023/03/29 08:00:18;;;;;;;3.90;2.20;;;;;;;10.87;36.68;100465.24;108219;1286;21992;-62
2023/03/29 08:02:49;;;;;;;4.10;2.40;;;;;;;10.93;36.78;100470.45;108123;1286;23138;-62
2023/03/29 08:05:16;;;;;;;4.20;2.20;;;;;;;11.00;36.16;100477.02;108180;1286;22044;-68
2023/03/29 08:07:43;;;;;;;3.70;2.10;;;;;;;10.94;35.45;100479.39;108228;1286;21989;-67
2023/03/29 08:10:18;;;;;;;4.20;2.30;;;;;;;10.88;34.91;100484.90;109282;1286;22026;-66
2023/03/29 08:12:45;;;;;;;4.20;2.40;;;;;;;11.02;35.88;100488.23;108132;1286;23734;-70
2023/03/29 08:15:12;;;;;;;3.30;1.80;;;;;;;11.03;35.61;100491.21;108187;1286;22047;-71
2023/03/29 08:17:40;;;;;;;4.60;2.00;;;;;;;11.02;34.90;100490.86;108134;1286;21989;-62
2023/03/29 08:20:08;;;;;;;4.30;2.60;;;;;;;11.03;35.30;100489.98;108111;1286;21991;-63
2023/03/29 08:22:35;;;;;;;3.70;1.80;;;;;;;11.02;35.41;100492.80;108118;1286;21996;-62
2023/03/29 08:25:01;;;;;;;3.80;2.00;;;;;;;11.01;35.02;100496.49;108083;1286;22026;-62
2023/03/29 08:27:29;;;;;;;4.50;2.10;;;;;;;10.97;34.25;100503.21;108147;1286;21989;-62
2023/03/29 08:29:55;;;;;;;3.70;2.00;;;;;;;10.77;33.58;100504.49;107338;1286;1003050;-62
2023/03/29 08:32:26;;;;;;;4.00;2.00;;;;;;;10.54;33.79;100508.95;108256;1286;22057;-70
2023/03/29 08:34:52;;;;;;;4.30;1.80;;;;;;;10.53;34.24;100511.26;108091;1286;21995;-62
2023/03/29 08:37:18;;;;;;;3.40;1.60;;;;;;;10.71;34.78;100510.71;108147;1286;21984;-66
2023/03/29 08:39:44;;;;;;;3.20;1.40;;;;;;;10.75;33.78;100508.91;107340;1273;1002043;-62
2023/03/29 08:42:15;;;;;;;2.80;1.60;;;;;;;10.82;33.47;100504.26;108297;1286;21950;-67
2023/03/29 08:44:47;;;;;;;3.80;1.80;;;;;;;10.61;33.23;100502.04;108187;1285;21998;-67
2023/03/29 08:47:20;;;;;;;3.10;1.50;;;;;;;10.42;34.00;100511.53;108100;1286;21989;-63
2023/03/29 08:49:49;;;;;;;3.30;1.60;;;;;;;10.50;34.53;100513.39;108117;1286;21989;-63
2023/03/29 08:52:30;;;;;;;3.70;1.40;;;;;;;10.48;33.61;100506.90;107414;1285;1003077;-71
2023/03/29 08:54:56;;;;;;;2.90;1.50;;;;;;;10.40;33.30;100509.27;108128;1286;21995;-63
2023/03/29 08:57:24;;;;;;;2.60;1.50;;;;;;;10.42;33.29;100512.23;107966;1286;21988;-62
2023/03/29 08:59:51;;;;;;;3.20;1.50;;;;;;;10.58;33.64;100512.08;108201;1286;23609;-64
2023/03/29 09:02:21;;;;;;;2.90;1.40;;;;;;;10.63;33.69;100515.70;108113;1286;23644;-63
2023/03/29 09:04:47;;;;;;;3.90;1.60;;;;;;;10.50;33.92;100524.61;107886;1286;21996;-68
2023/03/29 09:07:13;;;;;;;2.40;1.30;;;;;;;10.19;34.13;100518.54;108126;1286;21989;-68
2023/03/29 09:09:41;;;;;;;2.80;1.40;;;;;;;9.89;34.51;100521.22;108123;1286;23702;-62
2023/03/29 09:12:58;;;;;;;2.50;1.40;;;;;;;9.95;34.32;100527.31;108181;1286;21984;-67
2023/03/29 09:15:29;;;;;;;3.90;1.50;;;;;;;9.90;34.14;100530.69;108072;1286;23725;-63
2023/03/29 09:18:05;;;;;;;2.80;1.40;;;;;;;9.83;34.08;100530.39;108163;1286;21991;-67
2023/03/29 09:20:51;;;;;;;4.90;1.50;;;;;;;9.80;34.21;100525.48;108228;1286;21992;-63
2023/03/29 09:23:22;;;;;;;2.60;1.60;;;;;;;9.86;34.86;100524.41;107365;1286;1002360;-63
2023/03/29 09:26:24;;;;;;;2.60;1.60;;;;;;;9.82;35.04;100531.96;108144;1286;23712;-70
2023/03/29 09:28:59;;;;;;;2.90;1.70;;;;;;;9.68;35.17;100538.89;108376;1286;21973;-68
2023/03/29 09:31:33;;;;;;;2.80;1.60;;;;;;;9.72;35.84;100544.64;108222;1286;21989;-67
2023/03/29 09:34:08;;;;;;;3.80;2.00;;;;;;;9.83;36.34;100542.30;108206;1286;21996;-62
2023/03/29 09:36:58;;;;;;;3.70;1.70;;;;;;;9.89;36.62;100534.38;108186;1286;23717;-62
2023/03/29 09:39:25;;;;;;;3.80;1.50;;;;;;;10.24;36.21;100528.67;108198;1286;21983;-63
2023/03/29 09:41:52;;;;;;;3.10;1.50;;;;;;;10.52;35.95;100540.73;108102;1286;22020;-68
2023/03/29 09:59:38;;;;;;;2.30;1.30;;;;;;;6.86;42.87;100560.26;106624;1291;1002665;-70
2023/03/29 10:02:10;;;;;;;2.80;1.30;;;;;;;9.89;36.51;100543.11;107815;1293;21995;-70
2023/03/29 10:04:38;;;;;;;3.30;1.30;;;;;;;10.41;34.76;100539.95;107813;1294;21987;-60
2023/03/29 10:07:05;;;;;;;2.20;1.20;;;;;;;10.69;34.59;100540.58;107799;1294;21992;-61
2023/03/29 10:09:34;;;;;;;2.30;1.00;;;;;;;10.85;34.53;100547.60;107788;1291;21993;-66
2023/03/29 10:12:02;;;;;;;3.10;1.40;;;;;;;10.69;33.13;100553.73;106729;1288;1002616;-70
2023/03/29 10:14:47;;;;;;;1.90;1.00;;;;;;;10.56;32.69;100545.96;108148;1288;22933;-67
2023/03/29 10:17:21;;;;;;;2.50;1.10;;;;;;;10.85;33.81;100547.42;108146;1288;21995;-60
2023/03/29 10:20:00;;;;;;;1.70;1.10;;;;;;;10.86;32.87;100545.31;108165;1287;21996;-61
2023/03/29 10:22:39;;;;;;;1.80;0.90;;;;;;;10.92;32.87;100549.81;108197;1277;21988;-68
2023/03/29 10:25:14;;;;;;;1.90;0.90;;;;;;;11.02;33.08;100551.63;107459;1287;1003164;-68
2023/03/29 10:27:41;;;;;;;3.40;1.10;;;;;;;10.86;32.85;100561.09;108034;1286;21976;-69
2023/03/29 10:30:12;;;;;;;2.40;0.90;;;;;;;10.84;32.73;100559.55;107558;1287;1002526;-67
2023/03/29 10:32:38;;;;;;;2.10;1.10;;;;;;;10.82;32.47;100560.25;108132;1284;22029;-66
2023/03/29 10:35:18;;;;;;;1.70;0.90;;;;;;;10.61;32.29;100561.17;107118;1287;1002488;-68
2023/03/29 10:37:48;;;;;;;1.80;1.10;;;;;;;10.55;32.79;100566.67;107910;1287;22739;-68
2023/03/29 10:40:34;;;;;;;2.80;1.10;;;;;;;10.57;32.97;100570.52;108034;1287;21997;-67
2023/03/29 10:43:09;;;;;;;5.10;1.70;;;;;;;10.55;32.70;100570.17;108050;1287;22101;-67
2023/03/29 10:45:36;;;;;;;10.00;4.20;;;;;;;10.40;33.00;100571.52;108171;1284;22000;-67
2023/03/29 10:48:06;;;;;;;1.60;1.10;;;;;;;10.44;33.01;100566.76;107986;1287;21981;-65
2023/03/29 10:50:34;;;;;;;2.70;1.30;;;;;;;10.41;32.87;100568.35;107944;1288;23069;-62
2023/03/29 10:53:01;;;;;;;5.60;2.80;;;;;;;10.04;32.87;100567.56;108216;1287;21985;-67
2023/03/29 10:55:39;;;;;;;2.10;1.20;;;;;;;10.06;32.31;100569.14;108058;1287;21993;-68
2023/03/29 10:58:11;;;;;;;2.40;1.20;;;;;;;10.05;32.30;100568.09;108200;1287;21985;-60
2023/03/29 11:00:42;;;;;;;4.40;1.70;;;;;;;10.21;32.49;100566.40;108012;1288;21995;-67
2023/03/29 11:03:27;;;;;;;3.60;2.00;;;;;;;10.32;32.96;100562.98;108152;1288;22061;-62
2023/03/29 11:06:10;;;;;;;2.60;1.10;;;;;;;10.38;33.01;100571.02;108129;1287;22003;-67
2023/03/29 11:08:47;;;;;;;2.30;1.10;;;;;;;10.21;32.26;100577.79;107403;1287;1002180;-62
2023/03/29 11:11:16;;;;;;;2.20;0.90;;;;;;;10.42;32.09;100572.92;108215;1276;21994;-67
2023/03/29 11:13:43;;;;;;;2.60;1.30;;;;;;;10.65;32.80;100573.23;108142;1287;21988;-61
2023/03/29 11:16:15;;;;;;;3.00;1.80;;;;;;;10.87;32.94;100568.82;108054;1287;23483;-61
2023/03/29 11:18:56;;;;;;;2.40;1.10;;;;;;;11.05;33.10;100571.42;108009;1287;21989;-66
2023/03/29 11:21:28;;;;;;;6.50;3.40;;;;;;;10.89;31.84;100569.50;108177;1281;22003;-66
2023/03/29 11:24:19;;;;;;;7.40;3.70;;;;;;;10.58;31.69;100573.13;108116;1287;22003;-65
2023/03/29 11:27:11;;;;;;;7.20;3.70;;;;;;;10.60;31.82;100581.53;108083;1274;21981;-67
2023/03/29 11:29:42;;;;;;;3.20;1.40;;;;;;;10.84;31.54;100579.02;108147;1287;21989;-61
2023/03/29 11:32:14;;;;;;;5.60;2.90;;;;;;;10.78;31.48;100584.36;108198;1287;22008;-67
2023/03/29 11:34:49;;;;;;;2.30;1.00;;;;;;;10.42;31.11;100582.73;108187;1287;22050;-62
2023/03/29 11:37:29;;;;;;;3.80;1.50;;;;;;;10.50;32.36;100579.70;108225;1284;23435;-61
2023/03/29 11:40:20;;;;;;;2.80;1.00;;;;;;;10.29;33.19;100592.98;108222;1287;22160;-69
2023/03/29 11:42:47;;;;;;;1.90;1.00;;;;;;;10.17;33.26;100599.21;108119;1287;22006;-70
2023/03/29 11:45:23;;;;;;;3.10;1.40;;;;;;;9.98;33.61;100596.01;108140;1287;21991;-67
2023/03/29 11:47:49;;;;;;;2.30;1.00;;;;;;;9.74;34.04;100598.27;107209;1288;1002230;-67
2023/03/29 11:50:22;;;;;;;2.50;1.40;;;;;;;9.91;33.59;100597.46;107941;1288;21989;-67